createdAt,value
2023-03-27T00:03:40.127Z,649.00
2023-03-27T00:07:39.923Z,620.00
2023-03-27T00:11:39.896Z,726.00
2023-03-27T00:15:39.874Z,767.00
2023-03-27T00:19:39.871Z,577.00
2023-03-27T00:23:40.025Z,639.00
2023-03-27T00:27:39.879Z,616.00
2023-03-27T00:31:39.888Z,646.00
2023-03-27T00:35:39.961Z,559.00
2023-03-27T00:39:39.977Z,622.00
2023-03-27T00:43:39.949Z,645.00
2023-03-27T00:47:39.969Z,647.00
2023-03-27T00:51:39.942Z,661.00
2023-03-27T00:55:39.934Z,613.00
2023-03-27T00:59:39.952Z,599.00
2023-03-27T01:03:40.033Z,639.00
2023-03-27T01:07:39.979Z,686.00
2023-03-27T01:11:39.985Z,608.00
2023-03-27T01:15:40.068Z,585.00
2023-03-27T01:19:39.961Z,609.00
2023-03-27T01:24:00.276Z,613.00
2023-03-27T01:27:40.928Z,632.00
2023-03-27T01:31:39.953Z,570.00
2023-03-27T01:35:39.849Z,607.00
2023-03-27T01:39:39.815Z,579.00
2023-03-27T01:43:39.791Z,582.00
2023-03-27T01:47:39.775Z,551.00
2023-03-27T01:51:39.695Z,539.00
2023-03-27T01:55:39.654Z,585.00
2023-03-27T01:59:39.636Z,595.00
2023-03-27T02:03:39.699Z,596.00
2023-03-27T02:07:39.661Z,587.00
2023-03-27T02:11:39.683Z,582.00
2023-03-27T02:15:39.763Z,564.00
2023-03-27T02:19:39.653Z,584.00
2023-03-27T02:23:39.660Z,611.00
2023-03-27T02:27:39.654Z,582.00
2023-03-27T02:31:39.721Z,554.00
2023-03-27T02:35:39.666Z,593.00
2023-03-27T02:39:39.667Z,625.00
2023-03-27T02:43:39.704Z,574.00
2023-03-27T02:47:39.764Z,532.00
2023-03-27T02:51:39.727Z,591.00
2023-03-27T02:55:39.716Z,590.00
2023-03-27T02:59:39.740Z,570.00
2023-03-27T03:03:39.764Z,565.00
2023-03-27T03:07:39.765Z,593.00
2023-03-27T03:11:39.815Z,602.00
2023-03-27T03:15:39.806Z,599.00
2023-03-27T03:19:39.816Z,549.00
2023-03-27T03:23:39.837Z,531.00
2023-03-27T03:27:39.859Z,514.00
2023-03-27T03:31:39.890Z,540.00
2023-03-27T03:35:39.920Z,534.00
2023-03-27T03:39:39.931Z,532.00
2023-03-27T03:43:39.915Z,562.00
2023-03-27T03:47:40.026Z,555.00
2023-03-27T03:51:39.934Z,600.00
2023-03-27T03:55:39.974Z,565.00
2023-03-27T03:59:39.982Z,556.00
2023-03-27T04:03:40.099Z,603.00
2023-03-27T04:07:40.322Z,606.00
2023-03-27T04:11:40.042Z,637.00
2023-03-27T04:15:40.092Z,625.00
2023-03-27T04:19:40.088Z,666.00
2023-03-27T04:23:40.111Z,629.00
2023-03-27T04:27:40.139Z,658.00
2023-03-27T04:31:40.211Z,619.00
2023-03-27T04:35:40.215Z,553.00
2023-03-27T04:39:40.218Z,594.00
2023-03-27T04:43:40.285Z,593.00
2023-03-27T04:47:40.306Z,614.00
2023-03-27T04:51:40.254Z,655.00
2023-03-27T04:55:40.274Z,655.00
2023-03-27T04:59:40.293Z,637.00
2023-03-27T05:03:40.387Z,632.00
2023-03-27T05:07:40.302Z,709.00
2023-03-27T05:11:40.448Z,730.00
2023-03-27T05:15:40.354Z,711.00
2023-03-27T05:19:40.314Z,816.00
2023-03-27T05:23:40.300Z,791.00
2023-03-27T05:27:40.400Z,887.00
2023-03-27T05:31:40.323Z,894.00
2023-03-27T05:35:40.388Z,985.00
2023-03-27T05:39:40.353Z,1572.00
2023-03-27T05:43:40.443Z,1716.00
2023-03-27T05:47:40.697Z,2000.00
2023-03-27T05:51:47.276Z,2203.00
2023-03-27T05:55:41.605Z,2245.00
2023-03-27T05:59:40.525Z,2346.00
2023-03-27T06:03:40.645Z,2343.00
2023-03-27T06:07:43.129Z,2380.00
2023-03-27T06:11:40.662Z,2359.00
2023-03-27T06:15:40.639Z,2246.00
2023-03-27T06:19:40.854Z,2240.00
2023-03-27T06:23:40.563Z,2228.00
2023-03-27T06:27:40.537Z,2193.00
2023-03-27T06:31:40.922Z,2265.00
2023-03-27T06:35:40.887Z,1807.00
2023-03-27T06:39:40.871Z,2475.00
2023-03-27T06:43:40.380Z,1959.00
2023-03-27T06:47:51.641Z,2151.00
2023-03-27T06:51:41.300Z,2116.00
2023-03-27T06:55:40.379Z,2182.00
2023-03-27T06:59:40.382Z,2109.00
2023-03-27T07:03:40.207Z,1879.00
2023-03-27T07:07:41.548Z,2035.00
2023-03-27T07:11:40.368Z,2067.00
2023-03-27T07:15:40.412Z,2038.00
2023-03-27T07:19:40.540Z,1978.00
2023-03-27T07:23:40.612Z,2000.00
2023-03-27T07:27:40.697Z,1815.00
2023-03-27T07:31:55.804Z,1800.00
2023-03-27T07:35:41.921Z,1357.00
2023-03-27T07:39:40.729Z,1756.00
2023-03-27T07:43:40.830Z,1896.00
2023-03-27T07:47:40.990Z,1994.00
2023-03-27T07:51:41.418Z,1850.00
2023-03-27T07:55:41.088Z,1938.00
2023-03-27T07:59:41.104Z,2024.00
2023-03-27T08:03:41.243Z,2016.00
2023-03-27T08:07:41.169Z,2019.00
2023-03-27T08:11:41.168Z,2062.00
2023-03-27T08:15:41.187Z,1479.00
2023-03-27T08:19:41.432Z,682.00
2023-03-27T08:23:41.501Z,1150.00
2023-03-27T08:27:41.713Z,1525.00
2023-03-27T08:31:41.916Z,1756.00
2023-03-27T08:35:42.046Z,1848.00
2023-03-27T08:39:42.440Z,1485.00
2023-03-27T08:43:42.312Z,1576.00
2023-03-27T08:47:42.406Z,1689.00
2023-03-27T08:51:42.504Z,1589.00
2023-03-27T08:55:42.927Z,1542.00
2023-03-27T08:59:42.766Z,1430.00
2023-03-27T09:03:43.042Z,1429.00
2023-03-27T09:07:43.442Z,1393.00
2023-03-27T09:11:43.211Z,1365.00
2023-03-27T09:15:43.364Z,1307.00
2023-03-27T09:19:43.921Z,1208.00
2023-03-27T09:23:43.928Z,1060.00
2023-03-27T15:24:49.928Z,500.00
2023-03-27T15:25:49.901Z,500.00
2023-03-27T15:26:49.880Z,500.00
2023-03-27T15:27:49.890Z,500.00
2023-03-27T15:28:49.885Z,500.00
2023-03-27T15:29:49.897Z,511.00
2023-03-27T15:30:49.877Z,539.00
2023-03-27T15:31:49.858Z,501.00
2023-03-27T15:32:49.878Z,532.00
2023-03-27T15:33:49.829Z,564.00
2023-03-27T15:34:49.846Z,580.00
2023-03-27T15:35:49.894Z,547.00
2023-03-27T15:36:49.804Z,570.00
2023-03-27T15:37:49.812Z,573.00
2023-03-27T15:38:49.789Z,576.00
2023-03-27T15:39:49.798Z,558.00
2023-03-27T15:40:49.779Z,560.00
2023-03-27T15:41:49.786Z,550.00
2023-03-27T15:42:49.762Z,541.00
2023-03-27T15:43:49.751Z,538.00
2023-03-27T15:44:49.772Z,537.00
2023-03-27T15:45:49.745Z,550.00
2023-03-27T15:46:49.796Z,564.00
2023-03-27T15:47:49.798Z,565.00
2023-03-27T15:48:49.736Z,558.00
2023-03-27T15:49:49.735Z,572.00
2023-03-27T15:50:49.719Z,558.00
2023-03-27T15:51:49.725Z,559.00
2023-03-27T15:52:49.728Z,552.00
2023-03-27T15:53:49.697Z,558.00
2023-03-27T15:54:49.696Z,556.00
2023-03-27T15:55:49.678Z,571.00
2023-03-27T15:56:49.692Z,561.00
2023-03-27T15:57:49.665Z,585.00
2023-03-27T15:58:49.653Z,586.00
2023-03-27T15:59:52.335Z,588.00
2023-03-27T16:00:49.649Z,588.00
2023-03-27T16:01:49.680Z,590.00
2023-03-27T16:02:49.678Z,590.00
2023-03-27T16:03:49.745Z,591.00
2023-03-27T16:04:49.602Z,601.00
2023-03-27T16:05:49.610Z,607.00
2023-03-27T16:06:49.597Z,593.00
2023-03-27T16:07:49.583Z,591.00
2023-03-27T16:08:49.574Z,599.00
2023-03-27T16:09:49.581Z,602.00
2023-03-27T16:10:49.556Z,591.00
2023-03-27T16:11:49.574Z,602.00
2023-03-27T16:12:49.537Z,616.00
2023-03-27T16:13:49.539Z,615.00
2023-03-27T16:14:49.537Z,592.00
2023-03-27T16:15:49.560Z,614.00
2023-03-27T16:16:49.520Z,603.00
2023-03-27T16:17:49.563Z,613.00
2023-03-27T16:18:49.493Z,612.00
2023-03-27T16:19:49.504Z,601.00
2023-03-27T16:20:49.507Z,613.00
2023-03-27T16:21:49.494Z,627.00
2023-03-27T16:22:49.463Z,628.00
2023-03-27T16:23:49.462Z,603.00
2023-03-27T16:24:49.477Z,601.00
2023-03-27T16:25:49.463Z,609.00
2023-03-27T16:26:49.439Z,606.00
2023-03-27T16:27:49.446Z,603.00
2023-03-27T16:28:49.463Z,594.00
2023-03-27T16:29:49.530Z,578.00
2023-03-27T16:30:49.568Z,596.00
2023-03-27T16:31:49.648Z,579.00
2023-03-27T16:32:49.790Z,559.00
2023-03-27T16:33:49.759Z,556.00
2023-03-27T16:34:49.811Z,554.00
2023-03-27T16:35:49.873Z,551.00
2023-03-27T16:36:49.924Z,559.00
2023-03-27T16:37:49.993Z,560.00
2023-03-27T16:38:50.028Z,574.00
2023-03-27T16:39:50.096Z,560.00
2023-03-27T16:40:50.136Z,555.00
2023-03-27T16:41:50.185Z,589.00
2023-03-27T16:42:50.235Z,559.00
2023-03-27T16:43:50.353Z,559.00
2023-03-27T16:44:50.345Z,565.00
2023-03-27T16:45:50.463Z,548.00
2023-03-27T16:46:50.505Z,536.00
2023-03-27T16:47:53.176Z,548.00
2023-03-27T16:48:50.523Z,538.00
2023-03-27T16:50:03.619Z,543.00
2023-03-27T16:50:51.486Z,543.00
2023-03-27T16:51:50.496Z,545.00
2023-03-27T16:52:51.116Z,538.00
2023-03-27T16:53:50.476Z,539.00
2023-03-27T16:54:50.476Z,547.00
2023-03-27T16:55:50.445Z,538.00
2023-03-27T16:56:50.469Z,530.00
2023-03-27T16:57:50.481Z,552.00
2023-03-27T16:58:50.438Z,550.00
2023-03-27T16:59:50.463Z,515.00
2023-03-27T17:00:50.551Z,529.00
2023-03-27T17:01:50.574Z,541.00
2023-03-27T17:02:50.640Z,545.00
2023-03-27T17:03:50.673Z,523.00
2023-03-27T17:04:50.759Z,532.00
2023-03-27T17:05:50.774Z,551.00
2023-03-27T17:06:50.834Z,538.00
2023-03-27T17:07:50.861Z,558.00
2023-03-27T17:08:50.915Z,543.00
2023-03-27T17:09:50.957Z,518.00
2023-03-27T17:10:51.017Z,504.00
2023-03-27T17:11:51.090Z,509.00
2023-03-27T17:12:51.124Z,503.00
2023-03-27T17:13:51.184Z,505.00
2023-03-27T17:14:51.233Z,532.00
2023-03-27T17:15:51.305Z,529.00
2023-03-27T17:16:51.375Z,522.00
2023-03-27T17:17:51.446Z,533.00
2023-03-27T17:18:51.474Z,529.00
2023-03-27T17:19:51.520Z,500.00
2023-03-27T17:20:51.560Z,527.00
2023-03-27T17:21:51.644Z,500.00
2023-03-27T17:22:51.674Z,523.00
2023-03-27T17:23:51.743Z,524.00
2023-03-27T17:24:56.715Z,514.00
2023-03-27T17:25:52.791Z,515.00
2023-03-27T17:26:51.770Z,518.00
2023-03-27T17:27:51.777Z,519.00
2023-03-27T17:28:51.770Z,519.00
2023-03-27T17:29:51.754Z,515.00
2023-03-27T17:31:01.435Z,518.00
2023-03-27T17:31:52.793Z,518.00
2023-03-27T17:32:51.768Z,519.00
2023-03-27T17:33:52.140Z,519.00
2023-03-27T17:34:51.750Z,522.00
2023-03-27T17:35:51.730Z,506.00
2023-03-27T17:36:54.431Z,549.00
2023-03-27T17:37:51.700Z,531.00
2023-03-27T17:38:51.688Z,518.00
2023-03-27T17:39:51.692Z,515.00
2023-03-27T17:40:51.723Z,529.00
2023-03-27T17:41:51.779Z,507.00
2023-03-27T17:42:51.656Z,524.00
2023-03-27T17:43:51.665Z,535.00
2023-03-27T17:44:51.654Z,530.00
2023-03-27T17:45:51.637Z,531.00
2023-03-27T17:46:51.799Z,531.00
2023-03-27T17:47:51.655Z,516.00
2023-03-27T17:48:51.627Z,525.00
2023-03-27T17:49:51.612Z,505.00
2023-03-27T17:51:01.140Z,517.00
2023-03-27T17:51:52.606Z,517.00
2023-03-27T17:52:51.609Z,518.00
2023-03-27T17:53:51.577Z,516.00
2023-03-27T17:54:51.567Z,512.00
2023-03-27T17:55:51.569Z,535.00
2023-03-27T17:56:51.657Z,533.00
2023-03-27T17:58:02.015Z,506.00
2023-03-27T17:58:52.558Z,506.00
2023-03-27T17:59:51.536Z,507.00
2023-03-27T18:00:51.543Z,510.00
2023-03-27T18:01:51.630Z,500.00
2023-03-27T18:02:51.631Z,501.00
2023-03-27T18:03:51.703Z,513.00
2023-03-27T18:04:51.502Z,520.00
2023-03-27T18:05:51.488Z,500.00
2023-03-27T18:06:51.489Z,525.00
2023-03-27T18:07:51.484Z,530.00
2023-03-27T18:08:51.551Z,522.00
2023-03-27T18:09:51.590Z,537.00
2023-03-27T18:10:51.717Z,559.00
2023-03-27T18:11:51.716Z,552.00
2023-03-27T18:12:51.751Z,543.00
2023-03-27T18:13:51.814Z,543.00
2023-03-27T18:14:51.876Z,545.00
2023-03-27T18:15:51.977Z,535.00
2023-03-27T18:16:51.964Z,541.00
2023-03-27T18:17:52.077Z,567.00
2023-03-27T18:18:52.083Z,587.00
2023-03-27T18:19:52.131Z,571.00
2023-03-27T18:20:52.197Z,578.00
2023-03-27T18:21:52.254Z,559.00
2023-03-27T18:22:52.295Z,543.00
2023-03-27T18:24:52.387Z,544.00
2023-03-27T18:25:52.429Z,535.00
2023-03-27T18:26:52.535Z,539.00
2023-03-27T18:27:52.568Z,552.00
2023-03-27T18:28:52.599Z,552.00
2023-03-27T18:29:52.653Z,544.00
2023-03-27T18:30:52.693Z,525.00
2023-03-27T18:31:52.717Z,512.00
2023-03-27T18:32:52.758Z,522.00
2023-03-27T18:33:52.704Z,513.00
2023-03-27T18:34:52.681Z,503.00
2023-03-27T18:35:52.690Z,513.00
2023-03-27T18:36:52.670Z,510.00
2023-03-27T18:37:52.675Z,500.00
2023-03-27T18:38:52.641Z,515.00
2023-03-27T18:39:52.642Z,500.00
2023-03-27T18:40:52.612Z,507.00
2023-03-27T18:41:52.638Z,527.00
2023-03-27T18:42:52.764Z,512.00
2023-03-27T18:43:52.629Z,507.00
2023-03-27T18:44:52.608Z,503.00
2023-03-27T18:45:52.628Z,506.00
2023-03-27T18:46:52.583Z,517.00
2023-03-27T18:47:52.657Z,500.00
2023-03-27T18:48:52.567Z,503.00
2023-03-27T18:49:52.593Z,525.00
2023-03-27T18:50:52.572Z,532.00
2023-03-27T18:51:52.571Z,530.00
2023-03-27T18:52:52.558Z,522.00
2023-03-27T18:53:52.531Z,540.00
2023-03-27T18:54:52.519Z,546.00
2023-03-27T18:55:52.557Z,529.00
2023-03-27T18:56:52.604Z,540.00
2023-03-27T18:57:52.555Z,555.00
2023-03-27T18:58:52.529Z,551.00
2023-03-27T18:59:52.525Z,533.00
2023-03-27T19:00:52.552Z,564.00
2023-03-27T19:01:52.512Z,576.00
2023-03-27T19:02:52.569Z,563.00
2023-03-27T19:03:52.474Z,590.00
2023-03-27T19:04:52.453Z,587.00
2023-03-27T19:05:52.526Z,583.00
2023-03-27T19:06:52.449Z,563.00
2023-03-27T19:07:52.450Z,578.00
2023-03-27T19:08:52.427Z,555.00
2023-03-27T19:09:52.438Z,549.00
2023-03-27T19:10:52.502Z,547.00
2023-03-27T19:11:52.536Z,558.00
2023-03-27T19:12:52.602Z,563.00
2023-03-27T19:13:52.670Z,536.00
2023-03-27T19:14:52.709Z,533.00
2023-03-27T19:15:52.751Z,563.00
2023-03-27T19:16:52.823Z,555.00
2023-03-27T19:17:52.932Z,561.00
2023-03-27T19:18:52.920Z,570.00
2023-03-27T19:19:52.961Z,605.00
2023-03-27T19:20:53.017Z,618.00
2023-03-27T19:21:53.076Z,584.00
2023-03-27T19:22:53.140Z,604.00
2023-03-27T19:23:53.192Z,603.00
2023-03-27T19:24:53.241Z,600.00
2023-03-27T19:25:53.308Z,609.00
2023-03-27T19:26:53.347Z,587.00
2023-03-27T19:27:53.420Z,596.00
2023-03-27T19:28:53.472Z,614.00
2023-03-27T19:29:53.524Z,609.00
2023-03-27T19:30:53.601Z,598.00
2023-03-27T19:31:53.645Z,588.00
2023-03-27T19:32:53.729Z,645.00
2023-03-27T19:33:53.770Z,650.00
2023-03-27T19:34:53.824Z,648.00
2023-03-27T19:35:53.908Z,671.00
2023-03-27T19:36:53.929Z,629.00
2023-03-27T19:37:53.964Z,622.00
2023-03-27T19:38:54.034Z,642.00
2023-03-27T19:39:54.127Z,646.00
2023-03-27T19:40:54.158Z,629.00
2023-03-27T19:41:54.204Z,664.00
2023-03-27T19:42:54.259Z,665.00
2023-03-27T19:43:54.371Z,657.00
2023-03-27T19:44:54.381Z,646.00
2023-03-27T19:46:04.301Z,645.00
2023-03-27T19:46:55.468Z,646.00
2023-03-27T19:47:54.470Z,623.00
2023-03-27T19:48:54.410Z,632.00
2023-03-27T19:49:54.435Z,615.00
2023-03-27T19:50:54.457Z,621.00
2023-03-27T19:51:54.389Z,608.00
2023-03-27T19:53:07.394Z,618.00
2023-03-27T19:53:55.424Z,618.00
2023-03-27T19:54:54.372Z,602.00
2023-03-27T19:55:54.357Z,592.00
2023-03-27T19:56:54.407Z,592.00
2023-03-27T19:57:54.329Z,581.00
2023-03-27T19:58:54.337Z,562.00
2023-03-27T19:59:54.342Z,596.00
2023-03-27T20:00:54.348Z,567.00
2023-03-27T20:01:54.500Z,594.00
2023-03-27T20:02:54.515Z,611.00
2023-03-27T20:03:54.702Z,614.00
2023-03-27T20:04:54.613Z,566.00
2023-03-27T20:05:54.676Z,574.00
2023-03-27T20:06:54.734Z,617.00
2023-03-27T20:07:54.803Z,617.00
2023-03-27T20:08:54.862Z,631.00
2023-03-27T20:09:54.917Z,615.00
2023-03-27T20:10:54.994Z,621.00
2023-03-27T20:11:55.107Z,639.00
2023-03-27T20:12:55.108Z,630.00
2023-03-27T20:13:57.075Z,637.00
2023-03-27T20:15:07.559Z,618.00
2023-03-27T20:15:56.302Z,618.00
2023-03-27T20:16:55.223Z,601.00
2023-03-27T20:17:55.309Z,608.00
2023-03-27T20:18:55.330Z,573.00
2023-03-27T20:19:55.183Z,619.00
2023-03-27T20:20:55.205Z,656.00
2023-03-27T20:21:55.169Z,616.00
2023-03-27T20:22:57.999Z,626.00
2023-03-27T20:23:55.176Z,587.00
2023-03-27T20:24:55.147Z,605.00
2023-03-27T20:25:55.160Z,570.00
2023-03-27T20:26:55.132Z,579.00
2023-03-27T20:27:55.125Z,586.00
2023-03-27T20:28:55.138Z,563.00
2023-03-27T20:29:55.114Z,579.00
2023-03-27T20:30:55.148Z,597.00
2023-03-27T20:31:55.154Z,579.00
2023-03-27T20:32:55.151Z,555.00
2023-03-27T20:33:55.099Z,551.00
2023-03-27T20:34:55.074Z,559.00
2023-03-27T20:35:55.109Z,577.00
2023-03-27T20:36:55.057Z,575.00
2023-03-27T20:37:55.065Z,529.00
2023-03-27T20:38:55.048Z,550.00
2023-03-27T20:39:55.058Z,560.00
2023-03-27T20:40:55.040Z,528.00
2023-03-27T20:41:55.040Z,555.00
2023-03-27T20:42:55.022Z,568.00
2023-03-27T20:43:55.041Z,572.00
2023-03-27T20:44:55.073Z,581.00
2023-03-27T20:45:55.099Z,533.00
2023-03-27T20:46:56.467Z,512.00
2023-03-27T20:47:55.019Z,531.00
2023-03-27T20:48:55.171Z,519.00
2023-03-27T20:49:54.979Z,515.00
2023-03-27T20:50:54.956Z,500.00
2023-03-27T20:51:54.950Z,514.00
2023-03-27T20:52:54.943Z,500.00
2023-03-27T20:53:54.930Z,500.00
2023-03-27T20:54:54.946Z,581.00
2023-03-27T20:55:59.671Z,620.00
2023-03-27T20:56:55.961Z,580.00
2023-03-27T20:57:54.924Z,558.00
2023-03-27T20:58:54.957Z,563.00
2023-03-27T20:59:54.949Z,557.00
2023-03-27T21:00:54.960Z,552.00
2023-03-27T21:01:54.981Z,534.00
2023-03-27T21:02:55.030Z,530.00
2023-03-27T21:03:54.897Z,544.00
2023-03-27T21:04:54.904Z,533.00
2023-03-27T21:05:54.881Z,561.00
2023-03-27T21:06:55.000Z,567.00
2023-03-27T21:07:55.004Z,598.00
2023-03-27T21:08:55.041Z,552.00
2023-03-27T21:09:55.207Z,561.00
2023-03-27T21:10:55.160Z,537.00
2023-03-27T21:11:55.333Z,564.00
2023-03-27T21:12:55.303Z,530.00
2023-03-27T21:13:55.302Z,586.00
2023-03-27T21:14:55.342Z,566.00
2023-03-27T21:15:55.421Z,508.00
2023-03-27T21:16:55.560Z,535.00
2023-03-27T21:17:55.539Z,542.00
2023-03-27T21:18:55.604Z,555.00
2023-03-27T21:19:55.672Z,565.00
2023-03-27T21:20:55.734Z,526.00
2023-03-27T21:21:55.783Z,500.00
2023-03-27T21:22:55.853Z,532.00
2023-03-27T21:23:55.906Z,558.00
2023-03-27T21:24:55.981Z,559.00
2023-03-27T21:25:56.023Z,535.00
2023-03-27T21:26:56.094Z,528.00
2023-03-27T21:27:56.133Z,510.00
2023-03-27T21:28:56.186Z,543.00
2023-03-27T21:29:56.257Z,535.00
2023-03-27T21:30:56.322Z,560.00
2023-03-27T21:31:56.468Z,504.00
2023-03-27T21:32:56.510Z,563.00
2023-03-27T21:33:56.480Z,552.00
2023-03-27T21:34:56.538Z,548.00
2023-03-27T21:35:56.640Z,588.00
2023-03-27T21:36:56.630Z,601.00
2023-03-27T21:37:56.640Z,617.00
2023-03-27T21:38:56.698Z,612.00
2023-03-27T21:39:56.763Z,581.00
2023-03-27T21:40:56.795Z,605.00
2023-03-27T21:41:56.870Z,568.00
2023-03-27T21:42:56.891Z,557.00
2023-03-27T21:43:57.124Z,620.00
2023-03-27T21:44:57.458Z,647.00
2023-03-27T21:45:57.202Z,657.00
2023-03-27T21:46:57.105Z,672.00
2023-03-27T21:47:57.150Z,691.00
2023-03-27T21:48:57.181Z,712.00
2023-03-27T21:49:57.249Z,676.00
2023-03-27T21:50:57.298Z,641.00
2023-03-27T21:51:57.351Z,622.00
2023-03-27T21:52:57.402Z,624.00
2023-03-27T21:53:57.482Z,585.00
2023-03-27T21:55:03.193Z,587.00
2023-03-27T21:55:58.792Z,587.00
2023-03-27T21:56:57.562Z,588.00
2023-03-27T21:57:57.506Z,597.00
2023-03-27T21:58:57.601Z,605.00
2023-03-27T21:59:57.574Z,670.00
2023-03-27T22:00:57.599Z,726.00
2023-03-27T22:01:57.485Z,680.00
2023-03-27T22:02:57.491Z,692.00
2023-03-27T22:03:57.496Z,659.00
2023-03-27T22:04:57.610Z,647.00
2023-03-27T22:06:10.713Z,623.00
2023-03-27T22:06:58.607Z,619.00
2023-03-27T22:07:57.592Z,601.00
2023-03-27T22:08:57.600Z,595.00
2023-03-27T22:09:57.607Z,606.00
2023-03-27T22:10:57.583Z,623.00
2023-03-27T22:11:57.572Z,606.00
2023-03-27T22:12:57.542Z,591.00
2023-03-27T22:13:57.544Z,630.00
2023-03-27T22:14:57.574Z,631.00
2023-03-27T22:16:57.651Z,605.00
2023-03-27T22:17:57.719Z,596.00
2023-03-27T22:18:57.746Z,606.00
2023-03-27T22:19:57.802Z,587.00
2023-03-27T22:20:57.886Z,594.00
2023-03-27T22:21:57.914Z,572.00
2023-03-27T22:22:57.962Z,606.00
2023-03-27T22:23:58.063Z,617.00
2023-03-27T22:24:58.051Z,617.00
2023-03-27T22:25:58.272Z,620.00
2023-03-27T22:26:58.147Z,589.00
2023-03-27T22:27:59.524Z,586.00
2023-03-27T22:28:58.197Z,579.00
2023-03-27T22:29:58.211Z,600.00
2023-03-27T22:30:58.266Z,607.00
2023-03-27T22:31:58.172Z,614.00
2023-03-27T22:32:58.194Z,600.00
2023-03-27T22:33:58.184Z,597.00
2023-03-27T22:34:58.164Z,594.00
2023-03-27T22:35:58.376Z,622.00
2023-03-27T22:36:58.146Z,624.00
2023-03-27T22:37:58.127Z,593.00
2023-03-27T22:38:58.138Z,618.00
2023-03-27T22:39:58.135Z,636.00
2023-03-27T22:40:58.126Z,609.00
2023-03-27T22:41:58.109Z,631.00
2023-03-27T22:42:58.105Z,601.00
2023-03-27T22:43:58.126Z,603.00
2023-03-27T22:44:58.092Z,597.00
2023-03-27T22:45:58.263Z,602.00
2023-03-27T22:46:58.108Z,604.00
2023-03-27T22:47:58.134Z,601.00
2023-03-27T22:48:58.072Z,576.00
2023-03-27T22:49:58.048Z,604.00
2023-03-27T22:50:58.042Z,622.00
2023-03-27T22:51:58.030Z,612.00
2023-03-27T22:52:58.033Z,583.00
2023-03-27T22:53:58.047Z,630.00
2023-03-27T22:54:58.073Z,620.00
2023-03-27T22:55:58.260Z,622.00
2023-03-27T22:56:58.067Z,626.00
2023-03-27T22:57:58.006Z,636.00
2023-03-27T22:58:57.981Z,624.00
2023-03-27T22:59:57.975Z,588.00
2023-03-27T23:00:57.985Z,644.00
2023-03-27T23:01:58.028Z,599.00
2023-03-27T23:02:58.058Z,608.00
2023-03-27T23:03:58.076Z,640.00
2023-03-27T23:04:57.955Z,640.00
2023-03-27T23:05:58.131Z,636.00
2023-03-27T23:06:57.928Z,729.00
2023-03-27T23:07:57.948Z,713.00
2023-03-27T23:08:57.959Z,712.00
2023-03-27T23:09:57.924Z,696.00
2023-03-27T23:10:57.929Z,752.00
2023-03-27T23:11:57.933Z,712.00
2023-03-27T23:12:57.972Z,640.00
2023-03-27T23:13:58.028Z,641.00
2023-03-27T23:14:58.053Z,740.00
2023-03-27T23:15:58.422Z,735.00
2023-03-27T23:16:58.168Z,816.00
2023-03-27T23:17:58.193Z,890.00
2023-03-27T23:18:58.217Z,889.00
2023-03-27T23:19:58.242Z,781.00
2023-03-27T23:20:58.281Z,820.00
2023-03-27T23:21:58.323Z,753.00
2023-03-27T23:22:58.340Z,777.00
2023-03-27T23:23:58.386Z,692.00
2023-03-27T23:24:58.406Z,744.00
2023-03-27T23:25:59.049Z,762.00
2023-03-27T23:26:58.494Z,764.00
2023-03-27T23:27:58.505Z,758.00
2023-03-27T23:28:58.568Z,839.00
2023-03-27T23:29:58.573Z,850.00
2023-03-27T23:30:58.609Z,800.00
2023-03-27T23:31:58.726Z,669.00
2023-03-27T23:32:58.754Z,706.00
2023-03-27T23:33:58.748Z,730.00
2023-03-27T23:34:58.775Z,739.00
2023-03-27T23:35:59.057Z,779.00
2023-03-27T23:36:58.884Z,747.00
2023-03-27T23:37:58.874Z,747.00
2023-03-27T23:38:58.900Z,668.00
2023-03-27T23:39:58.920Z,730.00
2023-03-27T23:40:58.959Z,765.00
2023-03-27T23:41:59.000Z,713.00
2023-03-27T23:42:58.997Z,858.00
2023-03-27T23:43:59.033Z,785.00
2023-03-27T23:44:59.064Z,722.00
2023-03-27T23:45:59.590Z,656.00
2023-03-27T23:46:59.107Z,671.00
2023-03-27T23:47:59.203Z,728.00
2023-03-27T23:48:59.176Z,665.00
2023-03-27T23:49:59.210Z,674.00
2023-03-27T23:50:59.272Z,692.00
2023-03-27T23:51:59.305Z,692.00
2023-03-27T23:52:59.310Z,705.00
2023-03-27T23:53:59.320Z,708.00
2023-03-27T23:54:59.349Z,706.00
2023-03-27T23:55:59.582Z,746.00
2023-03-27T23:56:59.519Z,645.00
2023-03-27T23:57:59.447Z,744.00
2023-03-27T23:58:59.482Z,752.00
2023-03-27T23:59:59.485Z,729.00
